Time;durP1;ratioP1;P1;durP2;ratioP2;P2;SDS_P1;SDS_P2;PMS_P1;PMS_P2;Temp;Humidity;BMP_temperature;BMP_pressure;BME280_temperature;BME280_humidity;BME280_pressure;Samples;Min_cycle;Max_cycle;Signal;HPM_P1;HPM_P2
2021/10/26 00:00:09;;;;;;;27.50;17.30;;;;;;;4.72;73.16;101024.98;86017;1316;79311;-66
2021/10/26 00:02:39;;;;;;;31.10;17.80;;;;;;;4.70;73.20;101028.21;85953;1316;84468;-69
2021/10/26 00:04:47;;;;;;;29.70;17.60;;;;;;;4.69;73.22;101027.25;85913;1316;98243;-65
2021/10/26 00:06:55;;;;;;;29.20;17.30;;;;;;;4.66;73.17;101026.66;85957;1313;87348;-65
2021/10/26 00:09:02;;;;;;;28.60;18.00;;;;;;;4.66;73.36;101025.10;85920;1319;94108;-66
2021/10/26 00:11:10;;;;;;;31.30;17.50;;;;;;;4.63;73.28;101021.52;85943;1313;79773;-66
2021/10/26 00:13:18;;;;;;;28.20;17.30;;;;;;;4.62;73.44;101020.56;86015;1311;80496;-64
2021/10/26 00:15:25;;;;;;;28.40;17.20;;;;;;;4.61;73.25;101021.75;86010;1313;95884;-66
2021/10/26 00:17:33;;;;;;;28.80;16.90;;;;;;;4.57;73.34;101018.01;85919;1319;89301;-65
2021/10/26 00:19:41;;;;;;;28.60;17.90;;;;;;;4.54;73.55;101016.89;85844;1314;95866;-62
2021/10/26 00:21:48;;;;;;;30.30;16.90;;;;;;;4.54;73.56;101017.80;85999;1312;79611;-62
2021/10/26 00:23:56;;;;;;;30.30;17.90;;;;;;;4.51;73.45;101019.30;85970;1314;81522;-65
2021/10/26 00:26:04;;;;;;;29.20;16.60;;;;;;;4.49;73.58;101017.52;85980;1317;97924;-63
2021/10/26 00:28:21;;;;;;;27.30;16.50;;;;;;;4.50;73.64;101018.69;85960;1313;87487;-63
2021/10/26 00:30:28;;;;;;;29.20;16.90;;;;;;;4.49;73.52;101015.67;85933;1314;94928;-66
2021/10/26 00:32:36;;;;;;;28.60;16.30;;;;;;;4.46;73.49;101012.82;86003;1313;78583;-65
2021/10/26 00:34:44;;;;;;;36.40;17.50;;;;;;;4.43;73.63;101010.58;86025;1316;81912;-63
2021/10/26 00:36:51;;;;;;;28.00;16.20;;;;;;;4.39;73.54;101012.10;85979;1317;98554;-63
2021/10/26 00:38:58;;;;;;;28.70;16.50;;;;;;;4.39;73.69;101012.88;86011;1313;88384;-62
2021/10/26 00:41:06;;;;;;;30.20;16.50;;;;;;;4.40;73.70;101011.69;85849;1313;93514;-62
2021/10/26 00:43:14;;;;;;;24.40;15.40;;;;;;;4.40;73.56;101014.19;85961;1313;78802;-64
2021/10/26 00:45:22;;;;;;;26.20;15.90;;;;;;;4.37;73.62;101014.11;86023;1314;80198;-65
2021/10/26 00:47:30;;;;;;;27.70;15.90;;;;;;;4.34;73.51;101015.29;85982;1317;98573;-66
2021/10/26 00:49:37;;;;;;;28.80;15.00;;;;;;;4.31;73.45;101012.89;86003;1313;87660;-65
2021/10/26 00:51:45;;;;;;;26.70;15.20;;;;;;;4.29;73.51;101017.15;85977;1317;95041;-65
2021/10/26 00:53:55;;;;;;;28.80;16.00;;;;;;;4.26;73.45;101016.10;85936;1317;79511;-62
2021/10/26 00:56:03;;;;;;;29.10;16.30;;;;;;;4.25;73.73;101015.38;86020;1312;82466;-62
2021/10/26 00:58:14;;;;;;;24.80;14.40;;;;;;;4.24;73.93;101011.73;86018;1313;98573;-62
2021/10/26 01:00:22;;;;;;;26.20;15.40;;;;;;;4.23;73.78;101015.70;86056;1313;89502;-64
2021/10/26 01:02:29;;;;;;;25.30;15.20;;;;;;;4.22;73.87;101016.52;85890;1313;94818;-64
2021/10/26 01:04:40;;;;;;;27.00;16.10;;;;;;;4.21;74.06;101013.60;86007;1313;79789;-64
2021/10/26 01:06:48;;;;;;;26.80;14.00;;;;;;;4.25;73.82;101013.42;85928;1319;82574;-65
2021/10/26 01:08:56;;;;;;;24.70;15.50;;;;;;;4.23;73.76;101010.95;85942;1314;98052;-65
2021/10/26 01:11:05;;;;;;;23.60;15.00;;;;;;;4.21;73.75;101006.60;85949;1314;87540;-65
2021/10/26 01:13:18;;;;;;;28.10;15.30;;;;;;;4.20;73.88;101009.02;85990;1315;93645;-66
2021/10/26 01:15:25;;;;;;;24.10;14.10;;;;;;;4.17;73.71;101005.13;85996;1310;76538;-62
2021/10/26 01:17:33;;;;;;;25.20;14.30;;;;;;;4.13;73.74;101008.66;85961;1313;81752;-62
2021/10/26 01:19:48;;;;;;;22.80;12.90;;;;;;;4.10;74.03;101006.52;85974;1319;97750;-65
2021/10/26 01:21:56;;;;;;;29.70;15.80;;;;;;;4.08;74.24;101005.93;86061;1316;86913;-65
2021/10/26 01:24:04;;;;;;;23.60;14.20;;;;;;;4.08;74.01;101006.29;85959;1313;94053;-64
2021/10/26 01:26:11;;;;;;;23.40;13.90;;;;;;;4.09;74.03;101003.16;85904;1314;78001;-65
2021/10/26 01:28:19;;;;;;;26.80;15.10;;;;;;;4.10;73.97;101006.80;85993;1313;81745;-62
2021/10/26 01:30:33;;;;;;;23.60;14.10;;;;;;;4.08;74.04;101003.66;85956;1317;98545;-62
2021/10/26 01:32:40;;;;;;;23.20;13.40;;;;;;;4.02;74.04;100999.73;85986;1317;88383;-63
2021/10/26 01:34:49;;;;;;;23.80;14.10;;;;;;;3.99;73.96;101000.52;86003;1313;94398;-62
2021/10/26 01:36:59;;;;;;;24.30;13.40;;;;;;;3.96;74.13;101000.39;86033;1317;82249;-62
2021/10/26 01:39:06;;;;;;;29.60;14.50;;;;;;;3.95;73.98;100999.64;85984;1314;81032;-63
2021/10/26 01:41:14;;;;;;;24.50;13.70;;;;;;;3.94;74.04;101001.14;85991;1314;99334;-62
2021/10/26 01:43:22;;;;;;;25.60;14.00;;;;;;;3.93;74.08;101000.35;85963;1317;86636;-64
2021/10/26 01:45:30;;;;;;;23.30;14.50;;;;;;;3.89;74.06;100997.31;85974;1319;94005;-66
2021/10/26 01:47:38;;;;;;;24.40;14.20;;;;;;;3.87;74.21;100993.17;85954;1312;78291;-65
2021/10/26 01:49:45;;;;;;;26.20;13.40;;;;;;;3.84;74.24;100990.92;86033;1319;81980;-65
2021/10/26 01:51:54;;;;;;;25.60;15.10;;;;;;;3.78;74.42;100996.09;85991;1313;96690;-65
2021/10/26 01:54:02;;;;;;;26.50;13.70;;;;;;;3.75;74.46;100994.95;85878;1319;88380;-65
2021/10/26 01:56:10;;;;;;;24.20;13.90;;;;;;;3.72;74.47;100993.61;85917;1313;94221;-64
2021/10/26 01:58:19;;;;;;;23.80;14.70;;;;;;;3.71;74.51;100992.66;86004;1313;77157;-62
2021/10/26 02:00:27;;;;;;;25.90;14.20;;;;;;;3.67;74.69;100992.96;86004;1313;81363;-61
2021/10/26 02:02:34;;;;;;;28.60;14.70;;;;;;;3.65;74.60;100992.46;85744;1317;257574;-63
2021/10/26 02:04:42;;;;;;;24.10;13.60;;;;;;;3.65;74.53;100993.54;86028;1317;88305;-63
2021/10/26 02:06:49;;;;;;;22.60;14.10;;;;;;;3.63;74.57;100993.52;85902;1313;93058;-63
2021/10/26 02:08:59;;;;;;;23.60;13.70;;;;;;;3.58;74.55;100990.52;85979;1314;80394;-63
2021/10/26 02:11:06;;;;;;;27.60;14.00;;;;;;;3.57;74.70;100988.95;86020;1313;81654;-63
2021/10/26 02:13:16;;;;;;;26.90;14.30;;;;;;;3.57;74.73;100987.21;85984;1313;97442;-64
2021/10/26 02:15:24;;;;;;;23.50;13.20;;;;;;;3.57;74.66;100987.45;86024;1313;86894;-65
2021/10/26 02:17:31;;;;;;;24.10;12.80;;;;;;;3.57;74.87;100991.69;85930;1313;94936;-65
2021/10/26 02:19:40;;;;;;;25.50;13.20;;;;;;;3.55;74.83;100994.00;86021;1313;77778;-63
2021/10/26 02:21:47;;;;;;;25.40;14.40;;;;;;;3.52;74.80;100992.46;85989;1317;82327;-63
2021/10/26 02:23:55;;;;;;;23.50;13.60;;;;;;;3.49;75.01;100989.68;86032;1317;97507;-62
2021/10/26 02:26:04;;;;;;;22.30;13.30;;;;;;;3.48;74.90;100990.66;86018;1314;87297;-62
2021/10/26 02:28:11;;;;;;;22.60;13.10;;;;;;;3.49;75.04;100988.79;85955;1313;94672;-63
2021/10/26 02:30:19;;;;;;;23.90;14.00;;;;;;;3.50;75.05;100985.70;85927;1313;79330;-67
2021/10/26 02:32:26;;;;;;;20.40;12.90;;;;;;;3.48;75.17;100987.44;85987;1313;80657;-66
2021/10/26 02:34:34;;;;;;;22.70;14.00;;;;;;;3.43;75.18;100983.60;86024;1313;98629;-63
2021/10/26 02:36:41;;;;;;;22.60;12.90;;;;;;;3.39;75.02;100983.62;86018;1313;86350;-62
2021/10/26 02:38:50;;;;;;;22.50;12.20;;;;;;;3.37;75.07;100986.13;85976;1313;94881;-66
2021/10/26 02:40:59;;;;;;;22.20;12.80;;;;;;;3.38;75.28;100984.98;86051;1316;79990;-64
2021/10/26 02:43:06;;;;;;;21.70;12.80;;;;;;;3.37;75.29;100980.04;86016;1317;82585;-66
2021/10/26 02:45:16;;;;;;;20.70;12.60;;;;;;;3.36;75.49;100976.74;85887;1316;99234;-64
2021/10/26 02:47:23;;;;;;;20.50;12.50;;;;;;;3.34;75.19;100980.15;85968;1316;88535;-63
2021/10/26 02:49:34;;;;;;;25.00;13.20;;;;;;;3.32;75.26;100977.61;85992;1313;93672;-61
2021/10/26 02:51:44;;;;;;;23.50;13.10;;;;;;;3.31;75.38;100976.30;85964;1313;79455;-62
2021/10/26 02:53:52;;;;;;;24.40;12.50;;;;;;;3.30;75.48;100975.80;85990;1312;80555;-64
2021/10/26 02:56:00;;;;;;;21.00;13.20;;;;;;;3.29;75.48;100978.44;85999;1319;98512;-64
2021/10/26 02:58:08;;;;;;;22.60;12.80;;;;;;;3.26;75.49;100979.00;85958;1316;87935;-65
2021/10/26 03:00:17;;;;;;;21.30;12.60;;;;;;;3.24;75.60;100983.08;85925;1316;94558;-62
2021/10/26 03:02:25;;;;;;;21.60;13.10;;;;;;;3.23;75.45;100984.65;85986;1314;79635;-63
2021/10/26 03:04:32;;;;;;;20.60;11.80;;;;;;;3.21;75.50;100984.63;86034;1313;83119;-63
2021/10/26 03:06:43;;;;;;;23.70;13.20;;;;;;;3.18;75.53;100984.19;85976;1314;97861;-63
2021/10/26 03:08:51;;;;;;;22.60;12.40;;;;;;;3.15;75.70;100989.80;85876;1313;88570;-64
2021/10/26 03:11:01;;;;;;;20.60;12.70;;;;;;;3.13;75.65;100989.20;85965;1314;95356;-66
2021/10/26 03:13:15;;;;;;;20.20;12.70;;;;;;;3.11;75.62;100990.45;85941;1316;82340;-65
2021/10/26 03:15:23;;;;;;;24.10;12.40;;;;;;;3.06;75.76;100985.21;85960;1313;82596;-65
2021/10/26 03:17:30;;;;;;;18.80;11.60;;;;;;;3.05;75.82;100983.02;85920;1317;98046;-66
2021/10/26 03:19:38;;;;;;;20.60;11.90;;;;;;;3.04;75.86;100986.99;86013;1313;88032;-63
2021/10/26 03:21:45;;;;;;;19.50;11.10;;;;;;;3.04;75.93;100983.61;85725;1317;96777;-61
2021/10/26 03:23:53;;;;;;;19.40;11.80;;;;;;;3.04;76.09;100982.45;85937;1319;78553;-62
2021/10/26 03:26:00;;;;;;;19.90;11.80;;;;;;;3.05;76.02;100980.81;86018;1313;80754;-63
2021/10/26 03:28:10;;;;;;;21.10;12.00;;;;;;;3.06;76.04;100980.37;86022;1319;98023;-62
2021/10/26 03:30:18;;;;;;;20.60;11.80;;;;;;;3.08;76.07;100975.61;86034;1315;86452;-62
2021/10/26 03:32:26;;;;;;;20.40;11.10;;;;;;;3.10;76.10;100977.55;86035;1314;95038;-63
2021/10/26 03:34:37;;;;;;;21.00;11.40;;;;;;;3.08;76.14;100977.53;85966;1317;79210;-65
2021/10/26 03:36:45;;;;;;;17.10;10.40;;;;;;;3.04;75.97;100982.66;85936;1317;82081;-65
2021/10/26 03:38:52;;;;;;;21.70;11.80;;;;;;;3.01;76.08;100984.01;85922;1316;98702;-64
2021/10/26 03:40:59;;;;;;;18.60;10.50;;;;;;;2.94;76.15;100986.36;85950;1313;88346;-66
2021/10/26 03:43:07;;;;;;;21.70;11.80;;;;;;;2.88;76.23;100986.67;85931;1316;94720;-66
2021/10/26 03:45:15;;;;;;;20.60;11.70;;;;;;;2.84;76.21;100985.56;85925;1312;78326;-65
2021/10/26 03:47:23;;;;;;;18.90;10.70;;;;;;;2.82;76.42;100988.92;85956;1317;82418;-66
2021/10/26 03:49:30;;;;;;;20.90;12.40;;;;;;;2.81;76.44;100990.09;85961;1317;98516;-64
2021/10/26 03:51:37;;;;;;;17.20;10.60;;;;;;;2.77;76.35;100987.23;85952;1317;87394;-64
2021/10/26 03:53:45;;;;;;;20.70;11.00;;;;;;;2.73;76.35;100992.70;85937;1316;93808;-65
2021/10/26 03:55:52;;;;;;;20.50;12.00;;;;;;;2.68;76.46;100991.02;85929;1313;79752;-64
2021/10/26 03:58:00;;;;;;;22.80;12.10;;;;;;;2.69;76.59;100986.25;85939;1316;81588;-65
2021/10/26 04:00:10;;;;;;;21.80;12.00;;;;;;;2.67;76.62;100989.44;85996;1317;95767;-65
2021/10/26 04:02:25;;;;;;;19.30;10.60;;;;;;;2.70;76.76;100988.67;85970;1312;86813;-65
2021/10/26 04:04:36;;;;;;;19.80;11.40;;;;;;;2.72;76.78;100983.02;86010;1311;93375;-61
2021/10/26 04:06:45;;;;;;;20.60;11.10;;;;;;;2.72;76.78;100979.27;85946;1317;77852;-62
2021/10/26 04:08:55;;;;;;;19.30;10.00;;;;;;;2.72;76.81;100979.09;85968;1316;81848;-65
2021/10/26 04:11:06;;;;;;;19.10;10.80;;;;;;;2.70;76.92;100976.23;85975;1313;98281;-65
2021/10/26 04:13:16;;;;;;;18.50;11.60;;;;;;;2.69;77.12;100974.02;85958;1314;88170;-65
2021/10/26 04:15:23;;;;;;;21.80;12.10;;;;;;;2.71;77.10;100972.26;86024;1316;94325;-66
2021/10/26 04:17:31;;;;;;;21.70;13.10;;;;;;;2.73;77.11;100973.15;85943;1317;79095;-66
2021/10/26 04:19:38;;;;;;;22.60;12.20;;;;;;;2.75;77.16;100976.54;85998;1316;81692;-63
2021/10/26 04:21:46;;;;;;;18.30;11.70;;;;;;;2.76;77.13;100976.83;85932;1313;98528;-63
2021/10/26 04:23:53;;;;;;;21.50;11.50;;;;;;;2.76;77.20;100972.00;85943;1313;87030;-66
2021/10/26 04:26:01;;;;;;;20.20;11.80;;;;;;;2.77;77.14;100971.20;85814;1319;94209;-65
2021/10/26 04:28:10;;;;;;;20.30;11.50;;;;;;;2.79;77.19;100971.61;85952;1304;77664;-65
2021/10/26 04:30:18;;;;;;;21.30;12.10;;;;;;;2.78;77.16;100973.13;85966;1319;82457;-63
2021/10/26 04:32:25;;;;;;;20.60;11.30;;;;;;;2.78;77.30;100968.09;85843;1320;99138;-62
2021/10/26 04:34:36;;;;;;;21.00;12.10;;;;;;;2.75;77.27;100964.21;85991;1313;87089;-62
2021/10/26 04:36:44;;;;;;;20.60;11.20;;;;;;;2.78;77.27;100961.94;85935;1314;93079;-62
2021/10/26 04:38:51;;;;;;;20.40;11.40;;;;;;;2.76;77.31;100956.55;85976;1318;78712;-63
2021/10/26 04:41:01;;;;;;;19.00;11.20;;;;;;;2.75;77.20;100955.88;85988;1316;83095;-63
2021/10/26 04:43:14;;;;;;;18.80;11.40;;;;;;;2.75;77.29;100957.89;85987;1314;96707;-63
2021/10/26 04:45:23;;;;;;;23.60;12.20;;;;;;;2.73;77.49;100958.35;85971;1316;88270;-63
2021/10/26 04:47:30;;;;;;;21.50;12.00;;;;;;;2.75;77.41;100958.71;85993;1313;93909;-62
2021/10/26 04:49:38;;;;;;;18.50;11.30;;;;;;;2.73;77.38;100953.39;86021;1316;78668;-65
2021/10/26 04:51:48;;;;;;;19.90;11.00;;;;;;;2.72;77.54;100952.79;85971;1313;83186;-65
2021/10/26 04:53:55;;;;;;;22.00;11.10;;;;;;;2.71;77.57;100949.16;85987;1317;97192;-65
2021/10/26 04:56:03;;;;;;;18.60;10.90;;;;;;;2.68;77.58;100948.31;85968;1319;87726;-65
2021/10/26 04:58:14;;;;;;;17.00;11.10;;;;;;;2.70;77.53;100944.25;85970;1313;94939;-65
2021/10/26 05:00:21;;;;;;;21.60;10.60;;;;;;;2.71;77.41;100946.80;85971;1317;78123;-62
2021/10/26 05:02:29;;;;;;;19.50;11.00;;;;;;;2.71;77.77;100948.40;85987;1312;80869;-62
2021/10/26 05:04:36;;;;;;;18.20;11.00;;;;;;;2.75;77.71;100949.48;85961;1317;98736;-62
2021/10/26 05:06:44;;;;;;;19.30;10.70;;;;;;;2.76;77.60;100944.44;85984;1316;86952;-63
2021/10/26 05:08:53;;;;;;;18.80;11.60;;;;;;;2.77;77.64;100945.46;85977;1314;93308;-62
2021/10/26 05:11:01;;;;;;;20.90;11.30;;;;;;;2.79;77.75;100948.14;86009;1317;79375;-63
2021/10/26 05:13:08;;;;;;;19.60;11.10;;;;;;;2.80;77.70;100948.34;85969;1314;81144;-63
2021/10/26 05:15:16;;;;;;;18.30;11.30;;;;;;;2.83;77.74;100948.67;85967;1316;97295;-62
2021/10/26 05:17:24;;;;;;;20.10;11.40;;;;;;;2.81;77.79;100950.63;85861;1313;87457;-63
2021/10/26 05:19:33;;;;;;;18.20;11.40;;;;;;;2.80;77.78;100951.06;86015;1316;94086;-63
2021/10/26 05:21:45;;;;;;;20.80;11.00;;;;;;;2.78;77.69;100946.60;85980;1317;79871;-64
2021/10/26 05:23:53;;;;;;;16.60;11.60;;;;;;;2.74;77.75;100948.88;85957;1313;83262;-63
2021/10/26 05:26:01;;;;;;;20.80;11.50;;;;;;;2.75;77.79;100948.77;85986;1317;97567;-63
2021/10/26 05:28:10;;;;;;;17.70;10.70;;;;;;;2.80;77.80;100951.02;86047;1313;88143;-63
2021/10/26 05:30:17;;;;;;;19.70;11.30;;;;;;;2.81;77.89;100954.70;86030;1316;94582;-65
2021/10/26 05:32:25;;;;;;;20.60;11.90;;;;;;;2.81;77.88;100957.38;85985;1313;78616;-64
2021/10/26 05:34:32;;;;;;;20.00;11.30;;;;;;;2.78;77.86;100959.36;86013;1317;83052;-64
2021/10/26 05:36:40;;;;;;;20.80;11.20;;;;;;;2.76;77.81;100963.48;85987;1319;98368;-64
2021/10/26 05:38:48;;;;;;;21.90;10.40;;;;;;;2.77;77.79;100964.98;86029;1315;86682;-63
2021/10/26 05:40:59;;;;;;;18.80;11.40;;;;;;;2.77;78.00;100962.55;86014;1316;93833;-65
2021/10/26 05:43:07;;;;;;;25.20;12.30;;;;;;;2.78;78.06;100958.88;86022;1314;77382;-62
2021/10/26 05:45:17;;;;;;;18.70;11.60;;;;;;;2.81;78.00;100963.38;85902;1313;82173;-63
2021/10/26 05:47:25;;;;;;;22.70;12.80;;;;;;;2.85;78.18;100963.75;85988;1319;98705;-64
2021/10/26 05:49:35;;;;;;;20.40;12.50;;;;;;;2.91;78.15;100962.18;86022;1316;88497;-63
2021/10/26 05:51:43;;;;;;;20.00;12.20;;;;;;;2.99;78.07;100958.52;85998;1314;95015;-63
2021/10/26 05:53:50;;;;;;;21.60;12.70;;;;;;;3.06;78.02;100958.38;85986;1314;79738;-64
2021/10/26 05:55:58;;;;;;;20.30;12.30;;;;;;;3.13;78.15;100957.36;86012;1317;82512;-63
2021/10/26 05:58:06;;;;;;;21.70;11.20;;;;;;;3.22;78.18;100962.98;85993;1317;97047;-63
2021/10/26 06:00:16;;;;;;;16.10;11.40;;;;;;;3.32;78.23;100961.28;86044;1317;85863;-66
2021/10/26 06:02:24;;;;;;;19.00;11.60;;;;;;;3.43;78.11;100960.52;85957;1314;94275;-66
2021/10/26 06:04:35;;;;;;;22.10;13.30;;;;;;;3.55;78.11;100965.30;85941;1312;77916;-62
2021/10/26 06:06:46;;;;;;;21.90;13.30;;;;;;;3.66;78.02;100967.96;85966;1314;80472;-63
2021/10/26 06:08:53;;;;;;;22.00;12.00;;;;;;;3.76;78.17;100967.48;85985;1313;98272;-64
2021/10/26 06:11:05;;;;;;;20.20;12.40;;;;;;;3.87;78.02;100970.39;85954;1316;88485;-64
2021/10/26 06:13:24;;;;;;;19.70;12.60;;;;;;;4.00;78.04;100979.23;85926;1316;94951;-65
2021/10/26 06:15:32;;;;;;;19.80;11.90;;;;;;;4.13;77.88;100977.85;85977;1313;79255;-63
2021/10/26 06:17:39;;;;;;;19.20;12.10;;;;;;;4.18;77.74;100980.46;86008;1315;81427;-65
2021/10/26 06:19:46;;;;;;;21.00;12.40;;;;;;;4.24;77.63;100983.67;86022;1317;98030;-64
2021/10/26 06:21:54;;;;;;;28.70;12.40;;;;;;;4.31;77.70;100985.92;85898;1313;86199;-64
2021/10/26 06:24:02;;;;;;;22.30;12.20;;;;;;;4.41;77.57;100985.91;86018;1317;93068;-63
2021/10/26 06:26:09;;;;;;;18.80;12.30;;;;;;;4.54;77.62;100988.12;85951;1311;77767;-67
2021/10/26 06:28:17;;;;;;;22.20;12.80;;;;;;;4.66;77.31;100983.70;85918;1315;81509;-65
2021/10/26 06:30:24;;;;;;;22.30;12.40;;;;;;;4.81;77.46;100983.36;85894;1319;96416;-66
2021/10/26 06:32:32;;;;;;;21.40;12.50;;;;;;;4.96;77.11;100981.64;85935;1319;88614;-68
2021/10/26 06:34:42;;;;;;;20.40;12.10;;;;;;;5.11;77.05;100983.80;86027;1317;95343;-64
2021/10/26 06:36:50;;;;;;;21.90;11.70;;;;;;;5.37;77.08;100982.36;85962;1319;79146;-64
2021/10/26 06:39:00;;;;;;;20.50;12.40;;;;;;;5.57;76.83;100984.16;85977;1317;82495;-63
2021/10/26 06:41:08;;;;;;;19.70;11.60;;;;;;;5.75;76.62;100985.86;86016;1319;99094;-64
2021/10/26 06:43:15;;;;;;;20.90;12.60;;;;;;;5.95;76.58;100983.96;85999;1319;88376;-65
2021/10/26 06:45:23;;;;;;;19.60;12.50;;;;;;;6.15;76.27;100987.63;86024;1313;92595;-64
2021/10/26 06:47:31;;;;;;;22.50;12.80;;;;;;;6.34;76.13;100992.19;85996;1310;78313;-64
2021/10/26 06:49:38;;;;;;;22.10;13.00;;;;;;;6.50;75.84;100991.34;85885;1313;82642;-66
2021/10/26 06:51:45;;;;;;;20.80;12.30;;;;;;;6.70;75.43;100996.05;85945;1316;97987;-64
2021/10/26 06:53:53;;;;;;;21.00;12.40;;;;;;;6.77;75.10;100991.55;85972;1313;88132;-63
2021/10/26 06:56:08;;;;;;;16.80;11.80;;;;;;;6.86;74.74;100990.08;86037;1317;94468;-63
2021/10/26 06:58:16;;;;;;;21.80;12.00;;;;;;;6.95;74.57;100996.48;86024;1316;79370;-64
2021/10/26 07:00:25;;;;;;;15.90;11.60;;;;;;;7.13;74.60;100994.38;85968;1312;80559;-62
2021/10/26 07:02:32;;;;;;;19.70;11.50;;;;;;;7.31;74.21;100994.70;86014;1317;96352;-64
2021/10/26 07:04:44;;;;;;;17.60;11.30;;;;;;;7.47;73.95;100993.63;85940;1314;85358;-64
2021/10/26 07:06:52;;;;;;;16.90;12.60;;;;;;;7.58;73.68;100992.27;85960;1316;94644;-64
2021/10/26 07:09:02;;;;;;;19.20;12.10;;;;;;;7.75;73.45;100995.19;85924;1317;79492;-63
2021/10/26 07:11:10;;;;;;;18.60;11.40;;;;;;;8.04;73.44;100999.41;86004;1316;82134;-63
2021/10/26 07:13:18;;;;;;;19.80;12.50;;;;;;;8.46;73.17;100997.98;85998;1313;98176;-64
2021/10/26 07:15:29;;;;;;;20.30;11.40;;;;;;;8.65;72.52;101001.31;86029;1313;88623;-64
2021/10/26 07:17:38;;;;;;;18.50;12.00;;;;;;;9.15;72.34;100993.08;85969;1316;96000;-62
2021/10/26 07:19:50;;;;;;;17.50;11.60;;;;;;;9.62;71.73;100990.80;86001;1316;78550;-63
2021/10/26 07:21:58;;;;;;;16.50;11.30;;;;;;;9.81;71.04;100995.69;85987;1315;80625;-66
2021/10/26 07:24:08;;;;;;;17.70;12.20;;;;;;;10.01;70.52;100998.27;85886;1319;96458;-63
2021/10/26 07:26:19;;;;;;;17.80;11.50;;;;;;;10.40;70.05;100998.20;86014;1316;88260;-62
2021/10/26 07:28:32;;;;;;;16.50;11.90;;;;;;;10.65;69.38;100997.68;86008;1313;93778;-63
2021/10/26 07:30:44;;;;;;;14.10;11.00;;;;;;;10.92;69.03;100989.64;86083;1314;78041;-64
2021/10/26 07:32:52;;;;;;;18.00;11.60;;;;;;;11.85;68.65;100987.13;86128;1310;80887;-63
2021/10/26 07:34:59;;;;;;;13.20;10.80;;;;;;;12.58;67.64;100985.75;86087;1317;97012;-63
2021/10/26 07:37:08;;;;;;;18.00;11.00;;;;;;;12.86;66.50;100985.55;86108;1316;88464;-64
2021/10/26 07:39:32;;;;;;;17.30;12.30;;;;;;;12.66;65.78;100988.11;86098;1318;93489;-63
2021/10/26 07:41:42;;;;;;;15.10;11.50;;;;;;;12.71;65.17;100980.98;86088;1317;79455;-63
2021/10/26 07:43:50;;;;;;;17.80;11.30;;;;;;;12.50;64.57;100974.80;86046;1318;81461;-64
2021/10/26 07:45:58;;;;;;;14.80;10.80;;;;;;;12.65;64.50;100975.84;86076;1317;97753;-63
2021/10/26 07:48:07;;;;;;;17.60;11.10;;;;;;;13.19;64.34;100973.34;86061;1316;88414;-65
2021/10/26 07:50:15;;;;;;;17.30;10.00;;;;;;;13.73;63.40;100971.33;86053;1311;93014;-63
2021/10/26 07:52:23;;;;;;;21.10;12.40;;;;;;;13.77;62.96;100970.33;86052;1310;79847;-64
2021/10/26 07:54:31;;;;;;;17.60;11.00;;;;;;;13.68;62.50;100969.70;86121;1313;79759;-64
2021/10/26 07:56:41;;;;;;;17.90;11.20;;;;;;;13.63;62.33;100970.13;86062;1310;98161;-63
2021/10/26 07:58:52;;;;;;;15.80;11.00;;;;;;;13.56;61.74;100967.75;85929;1317;87694;-64
2021/10/26 08:01:03;;;;;;;15.30;11.00;;;;;;;13.48;61.71;100968.69;86081;1309;95125;-64
2021/10/26 08:03:11;;;;;;;17.80;11.30;;;;;;;13.33;61.73;100975.34;86098;1316;78305;-63
2021/10/26 08:05:19;;;;;;;17.50;11.80;;;;;;;13.13;61.19;100979.70;86069;1310;81420;-64
2021/10/26 08:07:30;;;;;;;16.80;10.40;;;;;;;13.03;61.63;100980.44;86041;1316;97882;-63
2021/10/26 08:09:37;;;;;;;15.30;10.80;;;;;;;13.00;61.42;100982.62;86066;1318;86692;-64
2021/10/26 08:11:45;;;;;;;16.00;10.80;;;;;;;12.94;61.53;100984.02;86035;1317;95726;-65
2021/10/26 08:13:56;;;;;;;14.90;10.70;;;;;;;12.78;61.36;100978.89;86091;1316;79787;-62
2021/10/26 08:16:03;;;;;;;13.00;9.90;;;;;;;12.69;61.39;100974.98;86067;1311;82000;-63
2021/10/26 08:18:14;;;;;;;15.00;9.40;;;;;;;12.68;61.60;100969.97;85970;1317;96227;-64
2021/10/26 08:20:22;;;;;;;17.00;10.60;;;;;;;12.68;61.50;100969.24;86050;1318;87399;-64
2021/10/26 08:22:33;;;;;;;15.60;10.00;;;;;;;12.68;61.63;100969.46;85979;1317;93397;-62
2021/10/26 08:24:41;;;;;;;15.90;9.60;;;;;;;12.91;61.58;100972.52;86100;1317;79996;-62
2021/10/26 08:26:57;;;;;;;14.40;9.80;;;;;;;13.22;61.53;100972.25;86067;1317;81040;-62
2021/10/26 08:29:11;;;;;;;13.40;9.50;;;;;;;13.41;61.31;100968.88;86114;1310;98265;-64
2021/10/26 08:31:24;;;;;;;14.00;9.00;;;;;;;13.45;61.15;100964.77;86088;1317;88814;-63
2021/10/26 08:33:41;;;;;;;;;;;;;;;13.45;61.13;100968.77;86025;1316;95465;-63
2021/10/26 08:35:50;;;;;;;11.60;8.50;;;;;;;13.38;60.93;100972.35;86061;1318;80367;-65
2021/10/26 08:38:03;;;;;;;14.20;9.50;;;;;;;13.28;60.63;100974.24;86052;1318;82204;-65
2021/10/26 08:40:12;;;;;;;12.20;9.10;;;;;;;13.19;60.62;100973.59;86093;1312;97363;-64
2021/10/26 08:42:23;;;;;;;11.80;8.80;;;;;;;13.18;60.48;100972.43;86070;1315;87484;-63
2021/10/26 08:44:31;;;;;;;13.10;8.60;;;;;;;13.13;60.62;100964.53;86105;1316;94670;-65
2021/10/26 08:46:39;;;;;;;13.30;8.40;;;;;;;13.04;60.38;100960.25;86031;1316;80338;-63
2021/10/26 08:48:52;;;;;;;13.90;9.20;;;;;;;12.98;60.35;100965.83;86062;1316;81225;-64
2021/10/26 08:51:02;;;;;;;11.70;8.40;;;;;;;12.86;60.36;100963.42;86059;1316;96576;-64
2021/10/26 08:53:10;;;;;;;11.20;8.50;;;;;;;12.90;60.47;100962.77;86091;1316;88025;-64
2021/10/26 08:55:20;;;;;;;12.00;8.50;;;;;;;13.01;60.55;100959.64;86061;1317;94040;-64
2021/10/26 08:57:28;;;;;;;15.10;9.50;;;;;;;13.19;60.47;100953.66;86009;1313;80496;-63
2021/10/26 08:59:38;;;;;;;14.20;8.50;;;;;;;13.42;60.25;100955.88;86048;1319;82502;-65
2021/10/26 09:01:47;;;;;;;14.70;9.10;;;;;;;13.63;60.07;100958.59;86075;1316;98051;-64
2021/10/26 09:04:08;;;;;;;11.60;7.80;;;;;;;13.81;59.98;100957.69;86050;1313;89144;-64
2021/10/26 09:06:27;;;;;;;14.50;8.30;;;;;;;13.87;59.41;100951.63;86080;1317;95030;-61
2021/10/26 09:08:36;;;;;;;15.70;9.40;;;;;;;13.89;59.46;100947.61;86009;1316;78953;-64
2021/10/26 09:10:44;;;;;;;12.70;8.80;;;;;;;14.01;59.18;100948.24;86074;1316;82017;-64
2021/10/26 09:18:03;;;;;;;12.90;8.70;;;;;;;14.28;58.54;100949.30;86010;1317;92986;-64
2021/10/26 09:20:21;;;;;;;11.40;8.10;;;;;;;14.34;58.13;100950.66;86059;1316;79283;-64
2021/10/26 09:22:30;;;;;;;11.00;8.10;;;;;;;14.41;58.07;100953.84;86046;1317;82017;-64
2021/10/26 09:24:52;;;;;;;11.30;8.40;;;;;;;14.38;57.65;100949.05;86129;1317;97185;-64
2021/10/26 09:27:04;;;;;;;12.20;8.00;;;;;;;14.51;57.81;100953.18;86063;1310;87606;-64
2021/10/26 09:29:16;;;;;;;13.10;8.70;;;;;;;14.68;57.65;100958.66;86071;1316;95106;-66
2021/10/26 09:31:31;;;;;;;15.50;8.80;;;;;;;14.65;56.75;100953.59;86058;1316;80007;-68
2021/10/26 09:33:41;;;;;;;12.70;8.30;;;;;;;14.86;56.77;100949.07;86024;1312;80333;-64
2021/10/26 09:35:49;;;;;;;10.80;7.80;;;;;;;14.58;55.87;100956.06;86078;1316;98343;-62
2021/10/26 09:38:00;;;;;;;13.40;9.00;;;;;;;14.52;56.39;100952.52;86095;1317;87459;-64
2021/10/26 09:40:11;;;;;;;10.30;8.30;;;;;;;14.83;56.53;100954.20;86076;1317;94169;-62
2021/10/26 09:42:20;;;;;;;11.50;8.30;;;;;;;14.87;56.02;100955.77;86064;1313;79152;-63
2021/10/26 09:44:30;;;;;;;14.90;8.70;;;;;;;14.97;56.03;100954.22;86110;1317;82144;-63
2021/10/26 09:46:39;;;;;;;13.30;9.00;;;;;;;15.03;55.79;100954.77;86090;1314;97754;-63
2021/10/26 09:48:47;;;;;;;11.40;8.90;;;;;;;15.15;55.88;100952.23;86092;1316;86492;-63
2021/10/26 09:51:08;;;;;;;13.00;9.00;;;;;;;15.32;55.68;100953.10;86061;1316;95483;-63
2021/10/26 09:53:19;;;;;;;10.40;8.60;;;;;;;15.41;55.60;100956.82;85932;1319;80089;-64
2021/10/26 09:55:28;;;;;;;13.00;9.00;;;;;;;15.38;55.34;100960.07;86057;1317;80687;-64
2021/10/26 09:57:42;;;;;;;11.50;8.40;;;;;;;15.27;55.12;100956.90;86062;1317;97842;-63